Pacific Journey — 3FFE — position and weather

sailwx.info

Track history (hours):
 
Tides and Currents Weather Stations Pressure Air Temp Water Temp Dewpoint Dewpoint Depression Visibility Wind Speed Wind Dir Waves Ship Positions

Pacific Journey

Last reported at 2015-Feb-20 21:10 UTC. Time now 2015-Mar-01 12:37 UTC.
Position N 35°57' W 005°35'.
Warning: this ship's position is 8 days out of date.

Length 180 m; draft 6.7 m.

Type: Cargo ship. MMSI: 371467000.

Date/timePositionNaut miles runAvg speedWind from/ knotsBaromVisibWave heightAir tempDewpointWater temp
2015-Feb-20 21:10N 35°57' W 005°35'711.0
2015-Feb-20 20:33N 35°60' W 005°27'1110.9
2015-Feb-20 19:33N 36°01' W 005°14'  
2015-Feb-16 16:26N 35°57' W 005°09'1315.0
2015-Feb-16 15:33N 36°05' W 005°22'5 4.9
2015-Feb-16 14:33N 36°09' W 005°25'0 0.0
2015-Feb-16 13:32N 36°09' W 005°25'0 0.0
2015-Feb-16 12:18N 36°09' W 005°25'0 0.0
2015-Feb-16 11:27N 36°09' W 005°25'2 1.9
2015-Feb-16 10:33N 36°08' W 005°24'5 5.2
2015-Feb-16 09:33N 36°03' W 005°22'4 3.9
2015-Feb-16 08:33N 36°07' W 005°23'1 1.1
2015-Feb-16 07:33N 36°07' W 005°22'0 0.0
2015-Feb-16 06:30N 36°07' W 005°22'0 0.0
2015-Feb-16 05:33N 36°07' W 005°22'0 0.0
2015-Feb-16 04:33N 36°07' W 005°22'0 0.0
2015-Feb-16 03:33N 36°07' W 005°22'0 0.1
2015-Feb-16 02:33N 36°07' W 005°22'0 0.1
2015-Feb-16 01:34N 36°08' W 005°22'0 0.0
2015-Feb-16 00:33N 36°08' W 005°22'0 0.0
2015-Feb-15 23:34N 36°08' W 005°22'0 0.1
2015-Feb-15 22:33N 36°07' W 005°22'0 0.0
2015-Feb-15 21:34N 36°07' W 005°22'0 0.0
2015-Feb-15 20:33N 36°07' W 005°22'0 0.0
2015-Feb-15 19:33N 36°07' W 005°22'0 0.0
2015-Feb-15 18:34N 36°07' W 005°22'0 0.0
2015-Feb-15 17:34N 36°07' W 005°22'0 0.0
2015-Feb-15 16:34N 36°07' W 005°22'0 0.0
2015-Feb-15 15:34N 36°07' W 005°22'0 0.1
2015-Feb-15 14:33N 36°08' W 005°22'4 4.1
2015-Feb-15 13:34N 36°04' W 005°19'5 4.6
2015-Feb-15 12:34N 36°01' W 005°23'  
Track history (hours):
 
Tides and Currents Weather Stations Pressure Air Temp Water Temp Dewpoint Dewpoint Depression Visibility Wind Speed Wind Dir Waves Ship Positions

Pacific Journey

Last reported at 2015-Feb-20 21:10 UTC. Time now 2015-Mar-01 12:37 UTC.
Position N 35°57' W 005°35'.
Warning: this ship's position is 8 days out of date.

Length 180 m; draft 6.7 m.

Type: Cargo ship. MMSI: 371467000.

Date/timePositionNaut miles runAvg speedWind from/ knotsBaromVisibWave heightAir tempDewpointWater temp
2015-Feb-20 21:10N 35°57' W 005°35'711.0
2015-Feb-20 20:33N 35°60' W 005°27'1110.9
2015-Feb-20 19:33N 36°01' W 005°14'  
2015-Feb-16 16:26N 35°57' W 005°09'1315.0
2015-Feb-16 15:33N 36°05' W 005°22'5 4.9
2015-Feb-16 14:33N 36°09' W 005°25'0 0.0
2015-Feb-16 13:32N 36°09' W 005°25'0 0.0
2015-Feb-16 12:18N 36°09' W 005°25'0 0.0
2015-Feb-16 11:27N 36°09' W 005°25'2 1.9
2015-Feb-16 10:33N 36°08' W 005°24'5 5.2
2015-Feb-16 09:33N 36°03' W 005°22'4 3.9
2015-Feb-16 08:33N 36°07' W 005°23'1 1.1
2015-Feb-16 07:33N 36°07' W 005°22'0 0.0
2015-Feb-16 06:30N 36°07' W 005°22'0 0.0
2015-Feb-16 05:33N 36°07' W 005°22'0 0.0
2015-Feb-16 04:33N 36°07' W 005°22'0 0.0
2015-Feb-16 03:33N 36°07' W 005°22'0 0.1
2015-Feb-16 02:33N 36°07' W 005°22'0 0.1
2015-Feb-16 01:34N 36°08' W 005°22'0 0.0
2015-Feb-16 00:33N 36°08' W 005°22'0 0.0
2015-Feb-15 23:34N 36°08' W 005°22'0 0.1
2015-Feb-15 22:33N 36°07' W 005°22'0 0.0
2015-Feb-15 21:34N 36°07' W 005°22'0 0.0
2015-Feb-15 20:33N 36°07' W 005°22'0 0.0
2015-Feb-15 19:33N 36°07' W 005°22'0 0.0
2015-Feb-15 18:34N 36°07' W 005°22'0 0.0
2015-Feb-15 17:34N 36°07' W 005°22'0 0.0
2015-Feb-15 16:34N 36°07' W 005°22'0 0.0
2015-Feb-15 15:34N 36°07' W 005°22'0 0.1
2015-Feb-15 14:33N 36°08' W 005°22'4 4.1
2015-Feb-15 13:34N 36°04' W 005°19'5 4.6
2015-Feb-15 12:34N 36°01' W 005°23'  

Dump ship's entire track history